createdAt,value
2019-05-03T00:02:52.304Z,11.46
2019-05-03T00:06:57.379Z,11.52
2019-05-03T00:11:02.354Z,11.65
2019-05-03T00:15:18.834Z,11.69
2019-05-03T00:19:23.722Z,11.77
2019-05-03T00:23:28.622Z,11.83
2019-05-03T00:27:33.516Z,11.75
2019-05-03T00:31:38.412Z,11.62
2019-05-03T00:35:44.954Z,11.61
2019-05-03T00:39:57.513Z,11.52
2019-05-03T00:44:02.398Z,11.48
2019-05-03T00:48:07.303Z,11.49
2019-05-03T00:52:12.192Z,11.52
2019-05-03T00:56:17.083Z,11.52
2019-05-03T01:00:22.039Z,11.53
2019-05-03T01:04:26.942Z,11.50
2019-05-03T01:08:32.634Z,11.43
2019-05-03T01:12:37.706Z,11.32
2019-05-03T01:16:42.830Z,11.17
2019-05-03T01:20:47.671Z,11.04
2019-05-03T01:24:52.568Z,10.92
2019-05-03T01:28:57.464Z,10.88
2019-05-03T01:33:02.805Z,10.83
2019-05-03T01:37:07.833Z,10.73
2019-05-03T01:41:12.715Z,10.48
2019-05-03T01:45:17.613Z,10.27
2019-05-03T01:49:24.155Z,10.05
2019-05-03T01:53:33.562Z,9.86
2019-05-03T01:57:38.447Z,9.67
2019-05-03T02:01:47.661Z,9.50
2019-05-03T02:05:55.612Z,9.35
2019-05-03T02:10:02.675Z,9.23
2019-05-03T02:14:07.091Z,9.17
2019-05-03T02:18:14.945Z,9.11
2019-05-03T02:22:18.551Z,9.07
2019-05-03T02:26:23.440Z,9.04
2019-05-03T02:30:28.328Z,9.07
2019-05-03T02:34:33.226Z,9.12
2019-05-03T02:38:38.388Z,9.11
2019-05-03T02:42:46.386Z,9.03
2019-05-03T02:46:56.283Z,9.01
2019-05-03T02:51:00.775Z,9.11
2019-05-03T02:55:10.993Z,8.93
2019-05-03T02:59:16.177Z,8.77
2019-05-03T03:03:21.501Z,8.66
2019-05-03T03:07:28.031Z,8.60
2019-05-03T03:11:35.977Z,8.51
2019-05-03T03:15:45.692Z,8.42
2019-05-03T03:19:51.195Z,8.38
2019-05-03T03:24:14.032Z,8.31
2019-05-03T03:28:25.327Z,8.27
2019-05-03T03:32:38.085Z,8.22
2019-05-03T03:36:58.842Z,8.17
2019-05-03T03:40:55.650Z,8.11
2019-05-03T03:45:01.044Z,8.04
2019-05-03T03:49:07.364Z,8.01
2019-05-03T03:53:12.398Z,7.99
2019-05-03T03:57:17.353Z,7.98
2019-05-03T04:01:22.241Z,7.94
2019-05-03T04:05:27.133Z,7.92
2019-05-03T04:09:32.688Z,7.92
2019-05-03T04:13:40.330Z,8.01
2019-05-03T04:17:52.772Z,8.08
2019-05-03T04:21:58.132Z,8.09
2019-05-03T04:26:03.198Z,8.11
2019-05-03T04:30:08.216Z,8.13
2019-05-03T04:34:15.985Z,8.19
2019-05-03T04:38:19.690Z,8.42
2019-05-03T04:42:25.340Z,8.62
2019-05-03T04:46:30.650Z,10.18
2019-05-03T04:50:36.708Z,11.90
2019-05-03T04:54:52.551Z,12.00
2019-05-03T04:58:57.452Z,12.39
2019-05-03T05:03:02.349Z,13.50
2019-05-03T05:07:07.235Z,14.00
2019-05-03T05:11:12.141Z,15.31
2019-05-03T05:15:17.098Z,17.31
2019-05-03T05:19:25.421Z,15.80
2019-05-03T05:23:30.471Z,13.99
2019-05-03T05:27:51.693Z,13.11
2019-05-03T05:31:49.313Z,12.91
2019-05-03T05:35:54.717Z,12.58
2019-05-03T05:39:59.680Z,12.28
2019-05-03T05:44:05.406Z,12.49
2019-05-03T05:48:12.159Z,14.61
2019-05-03T05:52:17.052Z,16.44
2019-05-03T05:56:38.601Z,18.40
2019-05-03T06:00:45.127Z,18.05
2019-05-03T06:04:50.029Z,18.04
2019-05-03T06:09:02.711Z,16.73
2019-05-03T06:13:15.213Z,16.87
2019-05-03T06:17:21.813Z,15.65
2019-05-03T06:21:32.374Z,14.52
2019-05-03T06:25:38.916Z,15.73
2019-05-03T06:29:45.368Z,14.43
2019-05-03T06:33:52.497Z,13.51
2019-05-03T06:37:56.958Z,12.90
2019-05-03T06:42:01.839Z,12.23
2019-05-03T06:46:06.735Z,11.71
2019-05-03T06:50:11.968Z,11.42
2019-05-03T06:54:23.885Z,11.39
2019-05-03T06:58:31.266Z,11.17
2019-05-03T07:02:31.682Z,10.86
2019-05-03T07:06:45.001Z,10.64
2019-05-03T07:10:51.738Z,10.56
2019-05-03T07:14:56.613Z,10.49
2019-05-03T07:19:04.340Z,10.43
2019-05-03T07:23:09.082Z,10.14
2019-05-03T07:27:15.792Z,10.09
2019-05-03T07:31:20.570Z,10.08
2019-05-03T07:35:26.544Z,10.37
2019-05-03T07:39:31.436Z,11.31
2019-05-03T07:43:36.339Z,11.20
2019-05-03T07:47:41.221Z,11.06
2019-05-03T07:51:46.119Z,10.91
2019-05-03T07:56:10.975Z,11.09
2019-05-03T08:00:17.580Z,11.19
2019-05-03T08:04:22.486Z,11.66
2019-05-03T08:08:27.446Z,11.83
2019-05-03T08:12:32.354Z,11.99
2019-05-03T08:16:37.323Z,12.34
2019-05-03T08:20:42.217Z,12.95
2019-05-03T08:24:47.111Z,12.75
2019-05-03T08:28:52.001Z,12.37
2019-05-03T08:33:01.429Z,12.30
2019-05-03T08:37:07.971Z,12.34
2019-05-03T08:41:14.604Z,12.70
2019-05-03T08:45:19.486Z,12.80
2019-05-03T08:49:25.462Z,12.82
2019-05-03T08:53:30.453Z,12.81
2019-05-03T08:57:35.505Z,12.82
2019-05-03T09:01:40.428Z,12.75
2019-05-03T09:05:46.235Z,13.16
2019-05-03T09:09:55.004Z,13.31
2019-05-03T09:14:04.557Z,13.55
2019-05-03T09:18:09.538Z,13.53
2019-05-03T09:22:14.764Z,13.57
2019-05-03T09:26:19.824Z,13.80
2019-05-03T09:30:25.687Z,13.79
2019-05-03T09:34:30.575Z,14.13
2019-05-03T09:38:35.483Z,14.55
2019-05-03T09:42:40.380Z,14.90
2019-05-03T09:46:45.278Z,14.96
2019-05-03T09:50:50.166Z,15.19
2019-05-03T09:54:56.703Z,15.24
2019-05-03T09:59:01.627Z,15.10
2019-05-03T10:03:06.578Z,14.65
2019-05-03T10:07:11.467Z,14.14
2019-05-03T10:11:16.352Z,14.57
2019-05-03T10:15:42.196Z,14.83
2019-05-03T10:19:47.126Z,14.88
2019-05-03T10:23:54.821Z,14.67
2019-05-03T10:27:59.812Z,14.27
2019-05-03T10:32:09.077Z,13.66
2019-05-03T10:36:15.385Z,13.50
2019-05-03T10:40:27.418Z,13.54
2019-05-03T10:44:32.321Z,13.62
2019-05-03T10:48:37.296Z,14.11
2019-05-03T10:52:46.520Z,14.38
2019-05-03T10:56:56.063Z,14.58
2019-05-03T11:01:00.924Z,14.53
2019-05-03T11:05:07.161Z,14.68
2019-05-03T11:09:12.079Z,14.57
2019-05-03T11:13:16.957Z,14.16
2019-05-03T11:17:21.851Z,14.03
2019-05-03T11:21:30.386Z,13.79
2019-05-03T11:25:34.434Z,13.87
2019-05-03T11:29:39.473Z,13.47
2019-05-03T11:33:45.668Z,13.28
2019-05-03T11:37:55.411Z,13.28
2019-05-03T11:42:00.474Z,13.36
2019-05-03T11:46:05.375Z,13.20
2019-05-03T11:50:10.620Z,13.55
2019-05-03T11:54:16.556Z,13.90
2019-05-03T11:58:22.148Z,14.07
2019-05-03T12:02:29.660Z,13.84
2019-05-03T12:06:36.792Z,13.55
2019-05-03T12:10:52.500Z,13.45
2019-05-03T12:14:47.823Z,13.36
2019-05-03T12:18:54.791Z,13.88
2019-05-03T12:23:00.710Z,14.55
2019-05-03T12:27:06.253Z,14.86
2019-05-03T12:31:25.733Z,14.92
2019-05-03T12:35:17.747Z,14.77
2019-05-03T12:39:29.428Z,14.46
2019-05-03T12:43:29.250Z,14.04
2019-05-03T12:47:34.740Z,13.87
2019-05-03T12:51:39.721Z,14.14
2019-05-03T12:55:44.615Z,14.36
2019-05-03T12:59:51.144Z,14.03
2019-05-03T13:03:57.683Z,14.20
2019-05-03T13:08:22.068Z,14.74
2019-05-03T13:12:28.735Z,14.74
2019-05-03T13:16:35.375Z,15.14
2019-05-03T13:20:40.351Z,14.55
2019-05-03T13:24:45.345Z,14.55
2019-05-03T13:28:50.224Z,14.37
2019-05-03T13:32:55.121Z,14.34
2019-05-03T13:37:00.037Z,14.63
2019-05-03T13:41:06.592Z,15.10
2019-05-03T13:45:12.323Z,15.39
2019-05-03T13:49:17.220Z,15.44
2019-05-03T13:53:22.123Z,15.34
2019-05-03T13:57:27.019Z,15.24
2019-05-03T14:01:31.927Z,14.92
2019-05-03T14:05:36.823Z,14.59
2019-05-03T14:09:41.726Z,14.41
2019-05-03T14:13:46.618Z,13.89
2019-05-03T14:17:51.510Z,14.13
2019-05-03T14:22:00.786Z,14.13
2019-05-03T14:26:05.669Z,14.66
2019-05-03T14:30:10.706Z,14.95
2019-05-03T14:34:17.480Z,15.03
2019-05-03T14:38:22.226Z,14.90
2019-05-03T14:42:27.113Z,14.38
2019-05-03T14:46:33.309Z,14.08
2019-05-03T14:50:38.602Z,14.50
2019-05-03T14:54:45.166Z,14.50
2019-05-03T14:59:00.407Z,14.76
2019-05-03T15:03:09.893Z,14.85
2019-05-03T15:07:15.334Z,14.94
2019-05-03T15:11:20.258Z,14.97
2019-05-03T15:15:25.208Z,14.52
2019-05-03T15:19:30.048Z,14.48
2019-05-03T15:23:34.958Z,14.49
2019-05-03T15:27:39.834Z,14.45
2019-05-03T15:31:44.881Z,14.32
2019-05-03T15:35:49.713Z,14.17
2019-05-03T15:39:54.885Z,14.22
2019-05-03T15:44:05.278Z,14.20
2019-05-03T15:48:12.056Z,14.15
2019-05-03T15:52:16.948Z,14.02
2019-05-03T15:56:21.851Z,14.25
2019-05-03T16:00:26.752Z,14.39
2019-05-03T16:04:31.665Z,14.07
2019-05-03T16:08:36.601Z,14.00
2019-05-03T16:12:41.502Z,14.06
2019-05-03T16:16:46.401Z,14.05
2019-05-03T16:20:51.299Z,14.05
2019-05-03T16:24:56.215Z,14.14
2019-05-03T16:29:08.219Z,14.33
2019-05-03T16:33:26.696Z,14.43
2019-05-03T16:37:19.704Z,14.50
2019-05-03T16:41:24.929Z,14.22
2019-05-03T16:45:29.873Z,14.22
2019-05-03T16:49:35.303Z,14.18
2019-05-03T16:53:40.622Z,13.93
2019-05-03T16:57:45.590Z,13.93
2019-05-03T17:01:50.485Z,13.85
2019-05-03T17:05:57.012Z,13.72
2019-05-03T17:10:04.922Z,13.57
2019-05-03T17:14:10.171Z,13.48
2019-05-03T17:18:17.177Z,13.23
2019-05-03T17:22:21.707Z,13.16
2019-05-03T17:26:26.618Z,13.10
2019-05-03T17:30:33.901Z,12.99
2019-05-03T17:34:38.183Z,12.92
2019-05-03T17:38:44.374Z,12.89
2019-05-03T17:43:00.190Z,12.81
2019-05-03T17:47:05.079Z,12.71
2019-05-03T17:51:11.612Z,12.60
2019-05-03T17:55:18.153Z,12.61
2019-05-03T17:59:24.690Z,12.71
2019-05-03T18:03:32.310Z,12.73
2019-05-03T18:07:55.074Z,12.94
2019-05-03T18:12:06.378Z,13.16
2019-05-03T18:16:11.252Z,12.98
2019-05-03T18:20:16.148Z,12.65
2019-05-03T18:24:21.046Z,12.45
2019-05-03T18:28:26.919Z,12.31
2019-05-03T18:32:31.815Z,12.20
2019-05-03T18:36:36.703Z,12.08
2019-05-03T18:40:41.606Z,11.90
2019-05-03T18:44:48.144Z,11.72
2019-05-03T18:48:55.035Z,11.59
2019-05-03T18:52:59.638Z,11.44
2019-05-03T18:57:05.070Z,11.30
2019-05-03T19:01:10.379Z,11.24
2019-05-03T19:05:17.051Z,11.15
2019-05-03T19:09:34.515Z,11.07
2019-05-03T19:13:41.579Z,11.06
2019-05-03T19:17:48.162Z,11.01
2019-05-03T19:21:53.061Z,10.96
2019-05-03T19:25:58.027Z,10.88
2019-05-03T19:30:04.698Z,10.84
2019-05-03T19:34:09.747Z,10.81
2019-05-03T19:38:15.212Z,10.79
2019-05-03T19:42:21.076Z,10.81
2019-05-03T19:46:25.972Z,10.75
2019-05-03T19:50:30.879Z,10.70
2019-05-03T19:54:36.501Z,10.68
2019-05-03T19:58:41.614Z,10.57
2019-05-03T20:03:04.935Z,10.50
2019-05-03T20:07:29.572Z,10.42
2019-05-03T20:11:34.750Z,10.31
2019-05-03T20:15:39.651Z,10.26
2019-05-03T20:19:45.147Z,10.25
2019-05-03T20:23:50.183Z,10.19
2019-05-03T20:27:55.917Z,10.14
2019-05-03T20:32:00.957Z,10.07
2019-05-03T20:36:05.849Z,10.09
2019-05-03T20:40:11.178Z,10.13
2019-05-03T20:44:24.865Z,10.18
2019-05-03T20:48:29.750Z,10.19
2019-05-03T20:52:35.220Z,10.16
2019-05-03T20:56:40.122Z,10.25
2019-05-03T21:00:45.167Z,10.33
2019-05-03T21:04:50.092Z,10.32
2019-05-03T21:08:56.439Z,10.29
2019-05-03T21:13:01.461Z,10.25
2019-05-03T21:17:10.707Z,10.25
2019-05-03T21:21:29.467Z,10.20
2019-05-03T21:26:05.707Z,10.21
2019-05-03T21:29:54.820Z,10.25
2019-05-03T21:33:58.837Z,10.21
2019-05-03T21:38:03.747Z,10.17
2019-05-03T21:42:08.638Z,10.14
2019-05-03T21:46:25.530Z,10.06
2019-05-03T21:50:30.647Z,9.99
2019-05-03T21:54:35.537Z,9.86
2019-05-03T21:58:40.426Z,9.76
2019-05-03T22:02:45.315Z,9.72
2019-05-03T22:06:50.197Z,9.67
2019-05-03T22:10:55.540Z,9.63
2019-05-03T22:15:04.973Z,9.56
2019-05-03T22:19:09.724Z,9.48
2019-05-03T22:23:31.425Z,9.38
2019-05-03T22:27:37.945Z,9.28
2019-05-03T22:31:42.833Z,9.15
2019-05-03T22:35:47.723Z,9.13
2019-05-03T22:39:54.885Z,9.21
2019-05-03T22:43:59.205Z,9.29
2019-05-03T22:48:05.230Z,9.32
2019-05-03T22:52:10.256Z,9.34
2019-05-03T22:56:15.148Z,9.42
2019-05-03T23:00:20.103Z,9.42
2019-05-03T23:04:25.477Z,9.46
2019-05-03T23:08:31.419Z,9.49
2019-05-03T23:12:36.306Z,9.51
2019-05-03T23:16:41.196Z,9.51
2019-05-03T23:20:47.717Z,9.51
2019-05-03T23:24:54.270Z,9.57
2019-05-03T23:28:59.253Z,9.57
2019-05-03T23:33:04.133Z,9.61
2019-05-03T23:37:09.023Z,9.65
2019-05-03T23:41:15.280Z,9.72
2019-05-03T23:45:20.384Z,9.72
2019-05-03T23:49:25.258Z,9.70
2019-05-03T23:53:30.146Z,9.72
2019-05-03T23:57:35.709Z,9.74
